Time;durP1;ratioP1;P1;durP2;ratioP2;P2;SDS_P1;SDS_P2;PMS_P1;PMS_P2;Temp;Humidity;BMP_temperature;BMP_pressure;BME280_temperature;BME280_humidity;BME280_pressure;Samples;Min_cycle;Max_cycle;Signal;HPM_P1;HPM_P2
2022/06/06 00:00:56;;;;;;;10.95;9.90;;;;;;;;;;5041123;28;20773;-81
2022/06/06 00:03:24;;;;;;;9.48;8.07;;;;;;;;;;5044627;28;20210;-81
2022/06/06 00:05:51;;;;;;;9.85;8.95;;;;;;;;;;5040744;28;20200;-83
2022/06/06 00:08:18;;;;;;;13.35;12.15;;;;;;;;;;5034832;28;20223;-81
2022/06/06 00:10:46;;;;;;;15.43;13.52;;;;;;;;;;5036756;28;20199;-81
2022/06/06 00:13:16;;;;;;;11.65;10.55;;;;;;;;;;5039390;28;20200;-81
2022/06/06 00:15:44;;;;;;;17.48;13.35;;;;;;;;;;5038939;28;20199;-82
2022/06/06 00:18:11;;;;;;;15.07;13.60;;;;;;;;;;5040026;28;20190;-81
2022/06/06 00:20:38;;;;;;;14.20;12.82;;;;;;;;;;5036174;28;20212;-81
2022/06/06 00:23:05;;;;;;;15.32;13.73;;;;;;;;;;5036674;28;20203;-81
2022/06/06 00:25:32;;;;;;;12.13;10.82;;;;;;;;;;5040739;28;20558;-83
2022/06/06 00:27:59;;;;;;;11.52;10.40;;;;;;;;;;5040308;28;20195;-80
2022/06/06 00:30:28;;;;;;;11.82;10.65;;;;;;;;;;5044822;28;20245;-80
2022/06/06 00:35:39;;;;;;;11.05;9.93;;;;;;;;;;5046107;28;20225;-80
2022/06/06 00:38:06;;;;;;;13.20;11.65;;;;;;;;;;5038874;28;20198;-81
2022/06/06 00:40:34;;;;;;;10.95;9.73;;;;;;;;;;5046635;28;20210;-80
2022/06/06 00:43:03;;;;;;;12.95;10.40;;;;;;;;;;5039258;28;20227;-80
2022/06/06 00:45:33;;;;;;;11.95;10.85;;;;;;;;;;5034428;28;20242;-81
2022/06/06 00:48:04;;;;;;;13.15;11.85;;;;;;;;;;5035273;28;20200;-81
2022/06/06 00:50:34;;;;;;;11.73;10.70;;;;;;;;;;5042462;28;20636;-80
2022/06/06 00:53:02;;;;;;;14.85;10.77;;;;;;;;;;5041162;28;20307;-80
2022/06/06 00:55:30;;;;;;;16.23;13.75;;;;;;;;;;5044570;28;20687;-82
2022/06/06 00:57:59;;;;;;;19.70;14.30;;;;;;;;;;5038983;28;20207;-79
2022/06/06 01:00:27;;;;;;;12.65;11.38;;;;;;;;;;5039933;28;20711;-80
2022/06/06 01:02:57;;;;;;;18.88;13.43;;;;;;;;;;5042529;28;20706;-80
2022/06/06 01:05:25;;;;;;;17.48;12.30;;;;;;;;;;5045148;28;20613;-82
2022/06/06 01:07:52;;;;;;;17.95;14.48;;;;;;;;;;5037081;28;20195;-82
2022/06/06 01:10:20;;;;;;;13.52;11.48;;;;;;;;;;5034259;28;20371;-80
2022/06/06 01:12:50;;;;;;;27.27;17.50;;;;;;;;;;5033458;28;20235;-81
2022/06/06 01:15:18;;;;;;;17.10;15.27;;;;;;;;;;5036811;28;20206;-81
2022/06/06 01:17:50;;;;;;;20.50;15.25;;;;;;;;;;5036685;28;20204;-80
2022/06/06 01:20:27;;;;;;;18.60;16.60;;;;;;;;;;5037690;28;20678;-82
2022/06/06 01:23:18;;;;;;;32.03;23.42;;;;;;;;;;5038715;28;20563;-80
2022/06/06 01:26:12;;;;;;;16.38;13.70;;;;;;;;;;5033027;28;20659;-81
2022/06/06 01:28:52;;;;;;;23.52;19.13;;;;;;;;;;5040729;28;20199;-79
2022/06/06 01:31:22;;;;;;;33.00;22.55;;;;;;;;;;5034202;28;20191;-80
2022/06/06 01:33:51;;;;;;;28.60;20.40;;;;;;;;;;5040137;28;20527;-79
2022/06/06 01:36:19;;;;;;;29.95;21.02;;;;;;;;;;5038307;28;20206;-81
2022/06/06 01:38:46;;;;;;;25.63;19.70;;;;;;;;;;5044067;28;20198;-80
2022/06/06 01:41:18;;;;;;;32.63;22.15;;;;;;;;;;5041218;28;20218;-80
2022/06/06 01:43:47;;;;;;;27.58;22.17;;;;;;;;;;5040902;28;20252;-80
2022/06/06 01:46:19;;;;;;;28.65;21.98;;;;;;;;;;5034484;28;20199;-82
2022/06/06 01:48:46;;;;;;;28.60;21.50;;;;;;;;;;5039074;28;20249;-80
2022/06/06 01:51:15;;;;;;;27.67;22.15;;;;;;;;;;5041446;28;20200;-79
2022/06/06 01:53:42;;;;;;;25.60;20.90;;;;;;;;;;5044522;28;20195;-81
2022/06/06 01:56:10;;;;;;;26.30;21.02;;;;;;;;;;5045973;28;20257;-81
2022/06/06 01:58:37;;;;;;;28.90;21.75;;;;;;;;;;5042409;28;20214;-83
2022/06/06 02:01:04;;;;;;;26.98;21.40;;;;;;;;;;5046061;28;20198;-80
2022/06/06 02:03:33;;;;;;;36.20;24.90;;;;;;;;;;5047623;28;20570;-80
2022/06/06 02:06:02;;;;;;;30.90;21.05;;;;;;;;;;5043490;28;20218;-80
2022/06/06 02:08:30;;;;;;;27.45;22.20;;;;;;;;;;5036197;28;20207;-82
2022/06/06 02:10:57;;;;;;;26.05;20.13;;;;;;;;;;5041162;28;20226;-81
2022/06/06 02:13:25;;;;;;;26.45;23.40;;;;;;;;;;5039015;28;20746;-80
2022/06/06 02:15:52;;;;;;;24.95;21.48;;;;;;;;;;5041167;28;20203;-80
2022/06/06 02:18:19;;;;;;;26.73;20.27;;;;;;;;;;5041636;28;20940;-80
2022/06/06 02:20:48;;;;;;;31.08;21.45;;;;;;;;;;5036672;28;20201;-80
2022/06/06 02:23:15;;;;;;;25.45;20.70;;;;;;;;;;5040568;28;20546;-79
2022/06/06 02:25:42;;;;;;;26.70;20.33;;;;;;;;;;5035857;28;20226;-81
2022/06/06 02:28:10;;;;;;;28.35;21.50;;;;;;;;;;5041331;28;20200;-83
2022/06/06 02:30:38;;;;;;;31.85;22.48;;;;;;;;;;5042671;28;20237;-82
2022/06/06 02:33:05;;;;;;;27.10;20.55;;;;;;;;;;5038543;28;20663;-81
2022/06/06 02:35:33;;;;;;;26.13;20.05;;;;;;;;;;5041116;28;20609;-81
2022/06/06 02:38:02;;;;;;;22.83;19.17;;;;;;;;;;5048472;28;20666;-79
2022/06/06 02:40:30;;;;;;;27.25;19.88;;;;;;;;;;5045038;28;20206;-79
2022/06/06 02:42:57;;;;;;;23.52;18.77;;;;;;;;;;5045742;28;20223;-79
2022/06/06 02:45:25;;;;;;;24.58;19.45;;;;;;;;;;5043195;28;20202;-84
2022/06/06 02:47:53;;;;;;;22.83;19.50;;;;;;;;;;5046140;28;20208;-81
2022/06/06 02:50:23;;;;;;;25.63;19.67;;;;;;;;;;5041896;28;20215;-81
2022/06/06 02:52:50;;;;;;;21.40;18.83;;;;;;;;;;5049551;28;20199;-81
2022/06/06 02:55:19;;;;;;;21.38;17.88;;;;;;;;;;5044113;28;20290;-81
2022/06/06 02:57:46;;;;;;;27.27;20.08;;;;;;;;;;5042677;28;20278;-81
2022/06/06 03:00:15;;;;;;;22.85;19.65;;;;;;;;;;5040554;28;20705;-81
2022/06/06 03:02:42;;;;;;;22.88;19.77;;;;;;;;;;5047226;28;20203;-81
2022/06/06 03:05:10;;;;;;;24.00;18.10;;;;;;;;;;5040890;28;20575;-80
2022/06/06 03:07:42;;;;;;;19.30;17.30;;;;;;;;;;5038067;28;20291;-82
2022/06/06 03:10:19;;;;;;;19.80;16.90;;;;;;;;;;5043240;28;20764;-81
2022/06/06 03:12:54;;;;;;;21.35;18.25;;;;;;;;;;5049493;28;20203;-80
2022/06/06 03:15:27;;;;;;;24.00;19.10;;;;;;;;;;5039569;28;20207;-80
2022/06/06 03:21:00;;;;;;;20.67;17.80;;;;;;;;;;5036931;28;20230;-81
2022/06/06 03:23:42;;;;;;;21.08;18.42;;;;;;;;;;5047688;28;20300;-80
2022/06/06 03:26:13;;;;;;;23.88;18.90;;;;;;;;;;5048302;28;20222;-81
2022/06/06 03:28:52;;;;;;;20.25;16.27;;;;;;;;;;5047944;28;20195;-82
2022/06/06 03:31:25;;;;;;;24.17;20.25;;;;;;;;;;5037230;28;20219;-80
2022/06/06 03:33:57;;;;;;;23.48;18.63;;;;;;;;;;5053564;28;20286;-80
2022/06/06 03:36:28;;;;;;;25.40;17.75;;;;;;;;;;5048009;28;20214;-79
2022/06/06 03:38:59;;;;;;;20.58;17.63;;;;;;;;;;5040506;28;20230;-81
2022/06/06 03:41:29;;;;;;;21.20;18.98;;;;;;;;;;5040298;28;20665;-80
2022/06/06 03:44:00;;;;;;;20.40;18.17;;;;;;;;;;5043822;28;20234;-80
2022/06/06 03:46:30;;;;;;;18.88;16.58;;;;;;;;;;5042314;28;20268;-81
2022/06/06 03:49:02;;;;;;;19.83;17.35;;;;;;;;;;5050085;28;20211;-79
2022/06/06 03:51:33;;;;;;;19.42;16.80;;;;;;;;;;5045297;28;20220;-81
2022/06/06 03:54:09;;;;;;;19.17;15.23;;;;;;;;;;5053332;28;20654;-82
2022/06/06 03:56:45;;;;;;;19.67;15.90;;;;;;;;;;5038771;28;20203;-80
2022/06/06 03:59:15;;;;;;;17.95;15.55;;;;;;;;;;5041797;28;20256;-81
2022/06/06 04:01:42;;;;;;;20.20;16.75;;;;;;;;;;5048633;28;20206;-81
2022/06/06 04:04:10;;;;;;;20.70;14.82;;;;;;;;;;5040440;28;20207;-81
2022/06/06 04:06:37;;;;;;;19.77;15.02;;;;;;;;;;5034194;28;20227;-81
2022/06/06 04:09:04;;;;;;;17.70;15.63;;;;;;;;;;5038786;28;20253;-80
2022/06/06 04:11:40;;;;;;;20.35;15.10;;;;;;;;;;5034918;28;20215;-81
2022/06/06 04:14:12;;;;;;;17.20;14.73;;;;;;;;;;5042003;28;20732;-80
2022/06/06 04:16:47;;;;;;;20.30;15.30;;;;;;;;;;5046512;28;20199;-79
2022/06/06 04:19:20;;;;;;;14.07;12.57;;;;;;;;;;5044230;28;20665;-80
2022/06/06 04:21:52;;;;;;;17.75;14.80;;;;;;;;;;5034607;28;20618;-79
2022/06/06 04:24:26;;;;;;;15.88;14.32;;;;;;;;;;5051412;28;20195;-79
2022/06/06 04:26:58;;;;;;;20.00;14.50;;;;;;;;;;5048485;28;20191;-79
2022/06/06 04:29:28;;;;;;;19.20;15.57;;;;;;;;;;5034477;28;20254;-78
2022/06/06 04:31:59;;;;;;;20.27;13.98;;;;;;;;;;5043972;28;20856;-83
2022/06/06 04:34:29;;;;;;;15.02;13.57;;;;;;;;;;5045975;28;20260;-79
2022/06/06 04:37:00;;;;;;;16.60;13.80;;;;;;;;;;5045185;28;20191;-81
2022/06/06 04:39:32;;;;;;;18.73;15.50;;;;;;;;;;5050664;28;20203;-78
2022/06/06 04:42:01;;;;;;;16.63;14.80;;;;;;;;;;5047152;28;20697;-78
2022/06/06 04:44:30;;;;;;;14.68;13.13;;;;;;;;;;5042094;28;20214;-80
2022/06/06 04:47:01;;;;;;;14.60;12.95;;;;;;;;;;5047262;28;20250;-79
2022/06/06 04:49:29;;;;;;;19.15;15.73;;;;;;;;;;5043800;28;20700;-78
2022/06/06 04:51:57;;;;;;;16.80;14.27;;;;;;;;;;5042176;28;20490;-79
2022/06/06 04:54:25;;;;;;;17.38;14.20;;;;;;;;;;5042637;28;20679;-79
2022/06/06 04:56:53;;;;;;;14.35;12.35;;;;;;;;;;5048141;28;20218;-83
2022/06/06 04:59:21;;;;;;;15.00;12.88;;;;;;;;;;5041323;28;20214;-81
2022/06/06 05:01:48;;;;;;;13.93;12.43;;;;;;;;;;5041070;28;20199;-81
2022/06/06 05:04:17;;;;;;;14.80;13.27;;;;;;;;;;5049348;28;20195;-82
2022/06/06 05:07:01;;;;;;;15.52;13.38;;;;;;;;;;5037977;28;20200;-81
2022/06/06 05:09:36;;;;;;;15.98;13.10;;;;;;;;;;5040597;28;20226;-81
2022/06/06 05:12:09;;;;;;;15.20;12.07;;;;;;;;;;5040745;28;20210;-82
2022/06/06 05:14:46;;;;;;;14.02;11.60;;;;;;;;;;5039200;28;20200;-80
2022/06/06 05:17:21;;;;;;;14.60;12.68;;;;;;;;;;5038035;28;20198;-81
2022/06/06 05:19:58;;;;;;;14.13;12.23;;;;;;;;;;5048401;28;20203;-79
2022/06/06 05:22:34;;;;;;;12.98;11.57;;;;;;;;;;5033762;28;20203;-82
2022/06/06 05:25:09;;;;;;;12.45;11.15;;;;;;;;;;5032225;28;20203;-80
2022/06/06 05:28:00;;;;;;;14.55;11.88;;;;;;;;;;5035383;28;20202;-79
2022/06/06 05:30:31;;;;;;;13.23;10.23;;;;;;;;;;5036660;28;20218;-80
2022/06/06 05:33:11;;;;;;;13.55;11.77;;;;;;;;;;5048980;28;20211;-78
2022/06/06 05:36:02;;;;;;;12.43;10.18;;;;;;;;;;5042405;28;20207;-79
2022/06/06 05:38:37;;;;;;;14.00;11.18;;;;;;;;;;5029883;28;20207;-78
2022/06/06 05:41:09;;;;;;;12.20;10.18;;;;;;;;;;5034301;28;20220;-80
2022/06/06 05:43:43;;;;;;;10.43;9.38;;;;;;;;;;5037297;28;20207;-80
2022/06/06 05:46:15;;;;;;;10.13;8.48;;;;;;;;;;5039594;28;20199;-80
2022/06/06 05:48:50;;;;;;;14.38;9.25;;;;;;;;;;5040344;28;20199;-81
2022/06/06 05:51:21;;;;;;;9.32;8.32;;;;;;;;;;5054192;28;20214;-80
2022/06/06 05:53:59;;;;;;;12.30;8.68;;;;;;;;;;5044408;28;20278;-80
2022/06/06 05:56:33;;;;;;;7.85;7.15;;;;;;;;;;5045830;28;20226;-80
2022/06/06 05:59:05;;;;;;;10.80;7.93;;;;;;;;;;5047562;28;20199;-80
2022/06/06 06:01:41;;;;;;;8.93;8.05;;;;;;;;;;5034547;28;20574;-82
2022/06/06 06:04:15;;;;;;;9.57;7.65;;;;;;;;;;5042396;28;20190;-83
2022/06/06 06:06:49;;;;;;;8.02;7.22;;;;;;;;;;5039951;28;20205;-83
2022/06/06 06:09:23;;;;;;;7.68;6.97;;;;;;;;;;5035871;28;20210;-83
2022/06/06 06:11:58;;;;;;;8.15;6.85;;;;;;;;;;5035240;28;20586;-84
2022/06/06 06:14:31;;;;;;;7.85;7.10;;;;;;;;;;5036703;28;20199;-82
2022/06/06 06:17:00;;;;;;;7.38;6.65;;;;;;;;;;5037361;28;20207;-83
2022/06/06 06:19:32;;;;;;;6.18;5.68;;;;;;;;;;5037184;28;20210;-85
2022/06/06 06:22:01;;;;;;;7.50;6.05;;;;;;;;;;5034407;28;20190;-86
2022/06/06 06:24:32;;;;;;;7.45;6.75;;;;;;;;;;5044536;28;20203;-83
2022/06/06 06:26:59;;;;;;;7.75;6.80;;;;;;;;;;5045621;28;20199;-82
2022/06/06 06:29:26;;;;;;;7.00;6.32;;;;;;;;;;5042213;28;20253;-83
2022/06/06 06:32:02;;;;;;;6.30;5.70;;;;;;;;;;5042480;28;20230;-83
2022/06/06 06:34:37;;;;;;;5.93;5.35;;;;;;;;;;5042408;28;20650;-82
2022/06/06 06:37:10;;;;;;;5.88;5.38;;;;;;;;;;5046611;28;20206;-82
2022/06/06 06:39:43;;;;;;;6.30;5.70;;;;;;;;;;5043805;28;20200;-83
2022/06/06 06:42:28;;;;;;;5.53;5.03;;;;;;;;;;5040489;28;20238;-84
2022/06/06 06:44:56;;;;;;;5.57;5.18;;;;;;;;;;5043666;28;20198;-82
2022/06/06 06:47:28;;;;;;;6.60;5.93;;;;;;;;;;5039536;28;20700;-84
2022/06/06 06:49:59;;;;;;;6.20;5.18;;;;;;;;;;5035588;28;20195;-81
2022/06/06 06:52:32;;;;;;;5.30;4.90;;;;;;;;;;5049765;28;20222;-81
2022/06/06 06:55:08;;;;;;;4.78;4.38;;;;;;;;;;5047162;28;20202;-80
2022/06/06 06:57:46;;;;;;;5.03;4.53;;;;;;;;;;5048563;28;20206;-82
2022/06/06 07:00:15;;;;;;;4.28;3.88;;;;;;;;;;5036269;28;20203;-81
2022/06/06 07:08:36;;;;;;;4.78;4.38;;;;;;;;;;5044154;28;20251;-82
2022/06/06 07:11:25;;;;;;;4.70;4.30;;;;;;;;;;5050670;28;20653;-81
2022/06/06 07:14:02;;;;;;;3.72;3.42;;;;;;;;;;5047949;28;20194;-82
2022/06/06 07:16:29;;;;;;;4.28;3.92;;;;;;;;;;5042916;28;20224;-82
2022/06/06 07:18:59;;;;;;;4.22;3.83;;;;;;;;;;5048509;28;20278;-78
2022/06/06 07:21:27;;;;;;;4.40;4.00;;;;;;;;;;5039419;28;20201;-81
2022/06/06 07:23:56;;;;;;;3.70;3.40;;;;;;;;;;5048235;28;20640;-79
2022/06/06 07:26:25;;;;;;;4.93;4.25;;;;;;;;;;5047124;28;20205;-79
2022/06/06 07:28:52;;;;;;;3.42;3.13;;;;;;;;;;5040002;28;20665;-80
2022/06/06 07:31:23;;;;;;;3.55;3.25;;;;;;;;;;5042570;28;20645;-80
2022/06/06 07:33:57;;;;;;;3.85;2.97;;;;;;;;;;5042809;28;20216;-81
2022/06/06 07:36:29;;;;;;;3.40;3.10;;;;;;;;;;5048241;28;20688;-82
2022/06/06 07:39:06;;;;;;;4.40;3.65;;;;;;;;;;5048311;28;20582;-80
2022/06/06 07:41:43;;;;;;;4.50;3.13;;;;;;;;;;5040034;28;20240;-86
2022/06/06 07:44:20;;;;;;;3.50;2.40;;;;;;;;;;5047003;28;20461;-82
2022/06/06 07:46:55;;;;;;;3.00;2.70;;;;;;;;;;5042500;28;20571;-81
2022/06/06 07:49:24;;;;;;;3.00;2.70;;;;;;;;;;5049429;28;20464;-84
2022/06/06 07:51:53;;;;;;;2.97;2.77;;;;;;;;;;5033862;28;20514;-84
2022/06/06 07:54:29;;;;;;;3.00;2.77;;;;;;;;;;5035062;28;20468;-84
2022/06/06 07:57:03;;;;;;;3.33;3.03;;;;;;;;;;5051331;28;20471;-81
2022/06/06 07:59:37;;;;;;;2.90;2.70;;;;;;;;;;5046222;28;20928;-81
2022/06/06 08:02:11;;;;;;;2.50;2.30;;;;;;;;;;5049144;28;20464;-83
2022/06/06 08:04:42;;;;;;;2.67;2.47;;;;;;;;;;5050399;28;20450;-83
2022/06/06 08:07:18;;;;;;;2.30;2.10;;;;;;;;;;5033611;28;20449;-82
2022/06/06 08:09:54;;;;;;;2.93;2.40;;;;;;;;;;5047399;28;20934;-81
2022/06/06 08:12:31;;;;;;;3.63;2.50;;;;;;;;;;5050412;28;20485;-79
2022/06/06 08:15:15;;;;;;;2.60;2.00;;;;;;;;;;5033848;28;20453;-78
2022/06/06 08:17:48;;;;;;;3.30;2.97;;;;;;;;;;5053210;28;20509;-82
2022/06/06 08:20:19;;;;;;;2.37;2.17;;;;;;;;;;5048317;28;20449;-82
2022/06/06 08:22:47;;;;;;;3.43;2.70;;;;;;;;;;5050619;28;20441;-83
2022/06/06 08:25:15;;;;;;;5.60;2.70;;;;;;;;;;5053117;28;20460;-81
2022/06/06 08:27:45;;;;;;;2.07;1.97;;;;;;;;;;5043528;28;20465;-80
2022/06/06 08:30:13;;;;;;;2.53;2.33;;;;;;;;;;5036950;28;20462;-82
2022/06/06 08:32:40;;;;;;;2.90;2.43;;;;;;;;;;5050247;28;21018;-83
2022/06/06 08:35:07;;;;;;;2.03;1.80;;;;;;;;;;5046836;28;20967;-85
2022/06/06 08:37:50;;;;;;;7.00;1.93;;;;;;;;;;5053080;28;20456;-82
2022/06/06 08:40:44;;;;;;;3.03;2.13;;;;;;;;;;5050136;28;20461;-83
2022/06/06 08:43:18;;;;;;;2.33;2.13;;;;;;;;;;5023794;28;20484;-81
2022/06/06 08:45:51;;;;;;;3.20;2.20;;;;;;;;;;5047937;28;20508;-81
2022/06/06 08:48:27;;;;;;;2.67;2.27;;;;;;;;;;5046941;28;20450;-82
2022/06/06 08:51:01;;;;;;;2.30;2.10;;;;;;;;;;5036164;28;20481;-84
2022/06/06 08:53:48;;;;;;;2.80;2.13;;;;;;;;;;5046319;28;20450;-82
2022/06/06 08:56:24;;;;;;;2.60;2.20;;;;;;;;;;5040602;28;20464;-84
2022/06/06 08:59:19;;;;;;;2.47;1.50;;;;;;;;;;5041581;28;20964;-83
2022/06/06 09:02:02;;;;;;;1.93;1.60;;;;;;;;;;5049438;28;20999;-83
2022/06/06 09:04:48;;;;;;;2.83;1.57;;;;;;;;;;5039995;28;20936;-85
2022/06/06 09:07:46;;;;;;;2.33;2.07;;;;;;;;;;5042601;28;20453;-82
2022/06/06 09:10:31;;;;;;;3.30;2.20;;;;;;;;;;5043028;28;20449;-81
2022/06/06 09:13:13;;;;;;;2.30;2.10;;;;;;;;;;5027367;28;20481;-83
2022/06/06 09:15:51;;;;;;;4.67;1.77;;;;;;;;;;5044561;28;20457;-82
2022/06/06 09:18:42;;;;;;;2.03;1.83;;;;;;;;;;5043745;28;20810;-82
2022/06/06 09:21:24;;;;;;;2.20;1.60;;;;;;;;;;5037256;28;20541;-83
2022/06/06 09:24:06;;;;;;;1.60;1.50;;;;;;;;;;5033968;28;20458;-82
2022/06/06 09:26:40;;;;;;;2.67;1.60;;;;;;;;;;5037089;28;20446;-82
2022/06/06 09:29:19;;;;;;;1.60;1.50;;;;;;;;;;5043887;28;20462;-79
2022/06/06 09:32:02;;;;;;;1.97;1.30;;;;;;;;;;5045024;28;20489;-82
2022/06/06 09:34:42;;;;;;;1.83;1.20;;;;;;;;;;5052367;28;20468;-82
2022/06/06 09:37:20;;;;;;;1.60;1.50;;;;;;;;;;5034307;28;20480;-82
2022/06/06 09:39:56;;;;;;;1.87;1.50;;;;;;;;;;5042423;28;20956;-82
2022/06/06 09:42:38;;;;;;;1.43;1.20;;;;;;;;;;5044474;28;20511;-81
2022/06/06 09:45:19;;;;;;;1.70;1.60;;;;;;;;;;5043611;28;20543;-82
2022/06/06 09:48:06;;;;;;;1.97;1.77;;;;;;;;;;5028456;28;20450;-81
2022/06/06 09:50:41;;;;;;;2.43;1.40;;;;;;;;;;5039984;28;20928;-80
2022/06/06 09:53:29;;;;;;;2.90;1.40;;;;;;;;;;5042296;28;20537;-81
2022/06/06 09:59:20;;;;;;;1.57;1.47;;;;;;;;;;5042765;28;20432;-81
2022/06/06 10:01:58;;;;;;;2.77;1.97;;;;;;;;;;5062033;28;20940;-80
2022/06/06 10:04:40;;;;;;;2.20;1.47;;;;;;;;;;5043803;28;20452;-81
2022/06/06 10:07:23;;;;;;;1.50;1.30;;;;;;;;;;5047594;28;20485;-82
2022/06/06 10:10:09;;;;;;;1.90;1.40;;;;;;;;;;5038167;28;20497;-81
2022/06/06 10:12:44;;;;;;;1.90;1.70;;;;;;;;;;5046594;28;20677;-81
2022/06/06 10:15:30;;;;;;;1.70;1.40;;;;;;;;;;5052348;28;20460;-80
2022/06/06 10:18:05;;;;;;;1.30;1.20;;;;;;;;;;5044236;28;20212;-80
2022/06/06 10:20:39;;;;;;;1.70;1.40;;;;;;;;;;5039392;28;20225;-81
2022/06/06 10:23:24;;;;;;;3.47;1.42;;;;;;;;;;5043331;28;20205;-82
2022/06/06 10:26:04;;;;;;;1.70;1.17;;;;;;;;;;5039288;28;20201;-80
2022/06/06 10:28:44;;;;;;;1.40;1.30;;;;;;;;;;5035453;28;20586;-80
2022/06/06 10:31:18;;;;;;;1.30;1.10;;;;;;;;;;5044813;28;20206;-81
2022/06/06 10:33:52;;;;;;;2.40;1.30;;;;;;;;;;5042989;28;20192;-81
2022/06/06 10:36:29;;;;;;;2.00;1.17;;;;;;;;;;5043140;28;20213;-80
2022/06/06 10:39:07;;;;;;;1.15;1.05;;;;;;;;;;5045130;28;20351;-81
2022/06/06 10:41:43;;;;;;;1.40;1.10;;;;;;;;;;5038449;28;20306;-80
2022/06/06 10:44:19;;;;;;;1.45;1.33;;;;;;;;;;5036514;28;20200;-80
2022/06/06 10:46:53;;;;;;;3.38;1.40;;;;;;;;;;5045952;28;20264;-80
2022/06/06 10:49:28;;;;;;;1.35;1.08;;;;;;;;;;5035356;28;20197;-79
2022/06/06 10:52:20;;;;;;;1.52;1.42;;;;;;;;;;5053331;28;20255;-80
2022/06/06 10:55:02;;;;;;;2.50;1.45;;;;;;;;;;5047333;28;20208;-80
2022/06/06 10:58:02;;;;;;;1.80;1.20;;;;;;;;;;5049351;28;20217;-80
2022/06/06 11:00:40;;;;;;;1.92;1.23;;;;;;;;;;5031157;28;20484;-80
2022/06/06 11:03:40;;;;;;;1.48;1.20;;;;;;;;;;5037242;28;20595;-80
2022/06/06 11:06:23;;;;;;;1.40;1.23;;;;;;;;;;5032610;28;20199;-81
2022/06/06 11:09:02;;;;;;;2.75;1.25;;;;;;;;;;5042892;28;20216;-80
2022/06/06 11:11:44;;;;;;;1.70;1.40;;;;;;;;;;5044339;28;20204;-81
2022/06/06 11:14:13;;;;;;;1.20;1.10;;;;;;;;;;5026498;28;20836;-81
2022/06/06 11:16:59;;;;;;;2.03;1.07;;;;;;;;;;5055647;28;20452;-81
2022/06/06 11:19:41;;;;;;;1.33;1.10;;;;;;;;;;5051790;28;20464;-82
2022/06/06 11:22:24;;;;;;;1.38;0.80;;;;;;;;;;5050197;28;20455;-81
2022/06/06 11:24:57;;;;;;;1.53;0.90;;;;;;;;;;5045250;28;20202;-81
2022/06/06 11:27:43;;;;;;;5.32;1.27;;;;;;;;;;5045627;28;20979;-81
2022/06/06 11:30:20;;;;;;;1.20;0.90;;;;;;;;;;5042576;28;20200;-82
2022/06/06 11:33:11;;;;;;;1.20;1.00;;;;;;;;;;5045146;28;20218;-80
2022/06/06 11:35:46;;;;;;;1.03;0.83;;;;;;;;;;5044486;28;20989;-81
2022/06/06 11:38:35;;;;;;;1.20;1.10;;;;;;;;;;5048421;28;20446;-82
2022/06/06 11:41:25;;;;;;;1.40;1.13;;;;;;;;;;5043331;28;20193;-79
2022/06/06 11:44:11;;;;;;;1.30;1.07;;;;;;;;;;5027402;28;20209;-79
2022/06/06 11:46:57;;;;;;;1.10;0.90;;;;;;;;;;5036704;28;20459;-78
2022/06/06 11:49:32;;;;;;;2.58;1.38;;;;;;;;;;5057223;28;20282;-77
2022/06/06 11:52:14;;;;;;;1.30;1.00;;;;;;;;;;5038542;28;20207;-80
2022/06/06 11:55:06;;;;;;;1.40;0.97;;;;;;;;;;5041301;28;20461;-81
2022/06/06 12:00:44;;;;;;;1.20;1.10;;;;;;;;;;5043642;28;20204;-81
2022/06/06 12:03:33;;;;;;;1.37;0.90;;;;;;;;;;5044749;28;20462;-80
2022/06/06 12:06:08;;;;;;;1.05;0.95;;;;;;;;;;5042735;28;20494;-81
2022/06/06 12:08:44;;;;;;;1.10;0.85;;;;;;;;;;5041518;28;20205;-78
2022/06/06 12:11:25;;;;;;;2.07;1.10;;;;;;;;;;5038358;28;20206;-79
2022/06/06 12:14:06;;;;;;;1.27;0.98;;;;;;;;;;5042732;28;20480;-78
2022/06/06 12:16:34;;;;;;;1.38;1.00;;;;;;;;;;5047098;28;20290;-80
2022/06/06 12:19:13;;;;;;;2.20;1.70;;;;;;;;;;5052171;28;20200;-83
2022/06/06 12:22:06;;;;;;;1.17;1.00;;;;;;;;;;5035036;28;20212;-83
2022/06/06 12:24:57;;;;;;;1.25;1.00;;;;;;;;;;5048967;28;20211;-82
2022/06/06 12:27:29;;;;;;;1.70;0.90;;;;;;;;;;5043767;28;20655;-81
2022/06/06 12:30:11;;;;;;;1.52;1.10;;;;;;;;;;5038426;28;20693;-84
2022/06/06 12:32:46;;;;;;;2.53;1.00;;;;;;;;;;5041353;28;20244;-82
2022/06/06 12:35:17;;;;;;;1.20;1.07;;;;;;;;;;5045946;28;20471;-80
2022/06/06 12:37:49;;;;;;;1.42;0.93;;;;;;;;;;5045070;28;20841;-80
2022/06/06 12:40:20;;;;;;;1.40;0.90;;;;;;;;;;5043077;28;20210;-81
2022/06/06 12:42:55;;;;;;;1.20;0.90;;;;;;;;;;5040454;28;20221;-81
2022/06/06 12:45:31;;;;;;;1.10;0.80;;;;;;;;;;5039367;28;20680;-84
2022/06/06 12:48:08;;;;;;;1.48;0.93;;;;;;;;;;5044576;28;20543;-85
2022/06/06 12:50:42;;;;;;;1.33;1.00;;;;;;;;;;5049078;28;20208;-85
2022/06/06 12:53:27;;;;;;;1.10;0.70;;;;;;;;;;5037612;28;20237;-82
2022/06/06 12:56:17;;;;;;;1.52;1.33;;;;;;;;;;5040828;28;20206;-81
2022/06/06 12:58:46;;;;;;;1.20;0.85;;;;;;;;;;5040605;28;20242;-86
2022/06/06 13:01:40;;;;;;;1.10;0.80;;;;;;;;;;5037933;28;20201;-84
2022/06/06 13:04:31;;;;;;;1.23;0.98;;;;;;;;;;5038660;28;20594;-85
2022/06/06 13:07:05;;;;;;;1.20;0.80;;;;;;;;;;4976135;28;20208;-85
2022/06/06 13:09:57;;;;;;;1.52;0.98;;;;;;;;;;5035742;28;20209;-86
2022/06/06 13:13:00;;;;;;;1.80;0.90;;;;;;;;;;5034367;28;20214;-84
2022/06/06 13:15:48;;;;;;;0.90;0.70;;;;;;;;;;5028882;28;20230;-85
2022/06/06 13:18:28;;;;;;;3.08;0.85;;;;;;;;;;5035989;28;20196;-85
2022/06/06 13:21:00;;;;;;;1.15;0.80;;;;;;;;;;5033775;28;20568;-84
2022/06/06 13:23:46;;;;;;;1.65;0.93;;;;;;;;;;5029244;28;20215;-83
2022/06/06 13:26:22;;;;;;;1.50;0.85;;;;;;;;;;5041516;28;20219;-87
2022/06/06 13:28:50;;;;;;;1.60;1.00;;;;;;;;;;5036694;28;20304;-83
2022/06/06 13:31:22;;;;;;;1.00;0.90;;;;;;;;;;5045645;28;20225;-83
2022/06/06 13:33:54;;;;;;;1.40;1.00;;;;;;;;;;5041603;28;20323;-84
2022/06/06 13:36:28;;;;;;;1.20;0.82;;;;;;;;;;5036247;28;20216;-83
2022/06/06 13:39:03;;;;;;;1.60;0.90;;;;;;;;;;5040052;28;20624;-85
2022/06/06 13:41:41;;;;;;;1.20;0.90;;;;;;;;;;5047145;28;20697;-84
2022/06/06 13:44:11;;;;;;;4.10;1.15;;;;;;;;;;5031501;28;20659;-84
2022/06/06 13:46:51;;;;;;;1.10;0.85;;;;;;;;;;5046496;28;20199;-83
2022/06/06 13:49:24;;;;;;;0.98;0.80;;;;;;;;;;5038734;28;20674;-84
2022/06/06 13:52:01;;;;;;;0.90;0.70;;;;;;;;;;5038794;28;20213;-85
2022/06/06 13:54:30;;;;;;;1.35;0.98;;;;;;;;;;5052044;28;20224;-85
2022/06/06 13:57:08;;;;;;;1.25;0.80;;;;;;;;;;5052450;28;20204;-87
2022/06/06 14:00:03;;;;;;;1.40;0.98;;;;;;;;;;5040703;28;20498;-85
2022/06/06 14:02:37;;;;;;;1.58;1.00;;;;;;;;;;5020369;28;20211;-83
2022/06/06 14:05:19;;;;;;;1.40;0.90;;;;;;;;;;5034256;28;20685;-85
2022/06/06 14:07:50;;;;;;;1.20;0.90;;;;;;;;;;5044254;28;20198;-85
2022/06/06 14:10:19;;;;;;;1.10;0.80;;;;;;;;;;5034392;28;20684;-85
2022/06/06 14:12:52;;;;;;;1.10;1.00;;;;;;;;;;5046165;28;20224;-85
2022/06/06 14:15:21;;;;;;;1.10;0.80;;;;;;;;;;5041583;28;20210;-84
2022/06/06 14:17:52;;;;;;;3.08;1.10;;;;;;;;;;5046909;28;20218;-81
2022/06/06 14:20:22;;;;;;;1.20;1.00;;;;;;;;;;5049467;28;20203;-84
2022/06/06 14:22:50;;;;;;;1.10;0.88;;;;;;;;;;5044646;28;20679;-86
2022/06/06 14:25:17;;;;;;;1.52;1.00;;;;;;;;;;5045354;28;20193;-82
2022/06/06 14:27:45;;;;;;;1.45;0.90;;;;;;;;;;5034158;28;20286;-83
2022/06/06 14:30:14;;;;;;;1.00;0.73;;;;;;;;;;5037000;28;20579;-84
2022/06/06 14:32:58;;;;;;;1.13;0.95;;;;;;;;;;5033348;28;20247;-83
2022/06/06 14:35:34;;;;;;;1.23;1.10;;;;;;;;;;5045582;28;20217;-83
2022/06/06 14:38:13;;;;;;;2.00;0.70;;;;;;;;;;5042711;28;20245;-83
2022/06/06 14:40:43;;;;;;;2.63;1.02;;;;;;;;;;5050868;28;20753;-82
2022/06/06 14:43:11;;;;;;;2.40;0.90;;;;;;;;;;5040885;28;20256;-84
2022/06/06 14:45:39;;;;;;;1.30;1.10;;;;;;;;;;5050003;28;20250;-84
2022/06/06 14:48:09;;;;;;;1.10;0.90;;;;;;;;;;5043680;28;20488;-83
2022/06/06 14:50:50;;;;;;;1.20;1.00;;;;;;;;;;5032412;28;20740;-84
2022/06/06 14:53:20;;;;;;;1.00;0.88;;;;;;;;;;5041550;28;20231;-82
2022/06/06 14:55:48;;;;;;;1.77;1.00;;;;;;;;;;5052690;28;20577;-81
2022/06/06 14:58:17;;;;;;;2.25;0.80;;;;;;;;;;5052066;28;20617;-79
2022/06/06 15:00:50;;;;;;;1.52;1.08;;;;;;;;;;5040808;28;20743;-82
2022/06/06 15:03:19;;;;;;;1.08;0.80;;;;;;;;;;5048013;28;20245;-84
2022/06/06 15:05:46;;;;;;;2.13;0.90;;;;;;;;;;5044713;28;20208;-82
2022/06/06 15:08:16;;;;;;;1.00;0.80;;;;;;;;;;5046209;28;20514;-82
2022/06/06 15:10:45;;;;;;;3.85;1.25;;;;;;;;;;5043908;28;20230;-84
2022/06/06 15:13:13;;;;;;;1.00;0.90;;;;;;;;;;5048328;28;20224;-83
2022/06/06 15:15:41;;;;;;;1.20;0.80;;;;;;;;;;5041606;28;20706;-86
2022/06/06 15:18:08;;;;;;;1.52;0.90;;;;;;;;;;5043894;28;20692;-86
2022/06/06 15:20:39;;;;;;;1.20;0.90;;;;;;;;;;5045983;28;20223;-84
2022/06/06 15:23:12;;;;;;;1.40;0.90;;;;;;;;;;5042299;28;20300;-82
2022/06/06 15:25:41;;;;;;;3.20;1.08;;;;;;;;;;5040697;28;20199;-86
2022/06/06 15:28:14;;;;;;;1.88;0.95;;;;;;;;;;5043220;28;20203;-86
2022/06/06 15:30:44;;;;;;;1.20;0.90;;;;;;;;;;5039418;28;20203;-85
2022/06/06 15:33:15;;;;;;;1.45;1.00;;;;;;;;;;5055719;28;20219;-86